KFRR

Details ICAO KFRR
Name FRONT ROYAL WARREN CO
Region United States
Timezone America/New_York (UTC-4.0)
Plans Departing 2
Arriving 10
Stats Elevation 709 ft / 216 m (AMSL)
Location 38.917507° -78.253525°
Runways 1
Magnetic Variation 10.108° W
Sunrise 2018-05-21 09:57:04 UTC / 2018-05-21 05:57:04 Local
Sunset 2018-05-22 00:25:01 UTC / 2018-05-21 20:25:01 Local
Advertisement - Login to hide

Runways

ID Width Length Bearing (true) Bearing (mag) Surface Threshold Offset Overrun Length
09 75 ft / 23 m 2,921 ft / 890 m 86.84° 96.95° Asphalt 0 ft / 0 m 0 ft / 0 m
27 75 ft / 23 m 2,921 ft / 890 m 266.85° 276.96° Asphalt 0 ft / 0 m 79 ft / 24 m

Map

Weather


0- 5 10 15 20 25 30 35+ Temperature / ° C

Clouds and Precipitation
Forecast for 2018-05-21 12:00 UTC. Updated 2 hours ago

Ground ~20,000 ft ~40,000 ft Winds

METAR

KFRR 211055Z AUTO 00000KT 5SM CLR 15/15 A3017 RMK AO1

TAF

Not found

Frequencies

Unicom 123.00 MHz CTAF/UNICOM
Warning: Do not use this data for real-world aviation or navigation. No guarantee of current accuracy is given.